createdAt,value
2023-01-08T00:01:10.929Z,23.37
2023-01-08T00:03:42.029Z,22.60
2023-01-08T00:06:13.503Z,22.77
2023-01-08T00:08:41.587Z,21.97
2023-01-08T00:11:09.717Z,21.17
2023-01-08T00:13:38.179Z,21.50
2023-01-08T00:16:09.786Z,23.97
2023-01-08T00:18:37.891Z,22.93
2023-01-08T00:21:06.745Z,22.80
2023-01-08T00:23:35.535Z,22.97
2023-01-08T00:26:04.083Z,23.73
2023-01-08T00:28:32.336Z,22.10
2023-01-08T00:31:03.489Z,21.60
2023-01-08T00:33:33.546Z,23.20
2023-01-08T00:36:01.680Z,22.30
2023-01-08T00:38:30.745Z,22.60
2023-01-08T00:40:58.654Z,24.67
2023-01-08T00:43:26.722Z,22.40
2023-01-08T00:45:54.721Z,22.23
2023-01-08T00:48:23.301Z,25.00
2023-01-08T00:50:53.632Z,23.80
2023-01-08T00:53:22.567Z,25.10
2023-01-08T00:55:50.552Z,24.00
2023-01-08T00:58:18.532Z,25.00
2023-01-08T01:00:46.424Z,25.13
2023-01-08T01:03:14.414Z,21.27
2023-01-08T01:05:42.308Z,25.83
2023-01-08T01:08:11.830Z,23.00
2023-01-08T01:10:40.339Z,23.93
2023-01-08T01:13:08.256Z,23.97
2023-01-08T01:15:36.322Z,21.60
2023-01-08T01:18:04.357Z,23.03
2023-01-08T01:20:32.252Z,20.80
2023-01-08T01:23:00.173Z,20.70
2023-01-08T01:25:29.441Z,22.30
2023-01-08T01:27:57.374Z,22.10
2023-01-08T01:30:25.291Z,25.17
2023-01-08T01:32:53.184Z,23.77
2023-01-08T01:35:21.116Z,24.10
2023-01-08T01:37:49.033Z,24.90
2023-01-08T01:40:16.982Z,25.70
2023-01-08T01:42:46.262Z,23.33
2023-01-08T01:45:21.106Z,25.27
2023-01-08T01:47:53.212Z,23.60
2023-01-08T01:50:26.684Z,23.27
2023-01-08T01:53:00.607Z,24.80
2023-01-08T01:55:29.093Z,22.67
2023-01-08T01:58:06.631Z,23.43
2023-01-08T02:00:35.830Z,22.50
2023-01-08T02:03:05.956Z,21.97
2023-01-08T02:05:42.068Z,22.43
2023-01-08T02:08:13.801Z,21.17
2023-01-08T02:10:49.325Z,21.07
2023-01-08T02:13:24.527Z,24.00
2023-01-08T02:15:57.509Z,23.13
2023-01-08T02:18:32.239Z,24.73
2023-01-08T02:21:07.672Z,26.60
2023-01-08T02:23:44.033Z,24.33
2023-01-08T02:26:22.959Z,24.87
2023-01-08T02:28:54.562Z,25.40
2023-01-08T02:31:25.711Z,26.10
2023-01-08T02:33:54.009Z,27.00
2023-01-08T02:36:33.752Z,24.60
2023-01-08T02:39:31.446Z,27.20
2023-01-08T02:42:10.190Z,27.00
2023-01-08T02:44:55.892Z,25.53
2023-01-08T02:47:29.990Z,25.03
2023-01-08T02:50:08.654Z,24.50
2023-01-08T02:52:42.928Z,25.93
2023-01-08T02:55:11.673Z,25.03
2023-01-08T02:57:41.691Z,26.10
2023-01-08T03:00:11.485Z,24.73
2023-01-08T03:02:42.100Z,27.13
2023-01-08T03:05:19.506Z,21.93
2023-01-08T03:07:47.699Z,24.33
2023-01-08T03:10:16.058Z,26.50
2023-01-08T03:12:54.781Z,26.00
2023-01-08T03:15:28.360Z,25.80
2023-01-08T03:18:00.996Z,25.43
2023-01-08T03:20:29.308Z,23.37
2023-01-08T03:22:59.323Z,24.23
2023-01-08T03:25:31.124Z,22.50
2023-01-08T03:28:04.667Z,24.90
2023-01-08T03:30:33.295Z,23.10
2023-01-08T03:33:02.617Z,23.03
2023-01-08T03:35:32.294Z,21.57
2023-01-08T03:38:07.322Z,22.73
2023-01-08T03:40:40.166Z,23.30
2023-01-08T03:43:09.482Z,23.83
2023-01-08T03:45:39.128Z,20.20
2023-01-08T03:48:08.313Z,22.37
2023-01-08T03:50:36.501Z,23.00
2023-01-08T03:53:04.466Z,21.60
2023-01-08T03:55:32.390Z,20.93
2023-01-08T03:58:00.368Z,21.77
2023-01-08T04:00:29.948Z,17.57
2023-01-08T04:02:57.882Z,19.90
2023-01-08T04:05:26.095Z,20.70
2023-01-08T04:07:56.576Z,20.50
2023-01-08T04:10:24.663Z,18.80
2023-01-08T04:12:52.872Z,19.20
2023-01-08T04:15:20.887Z,19.10
2023-01-08T04:17:50.151Z,21.13
2023-01-08T04:20:18.101Z,19.60
2023-01-08T04:22:46.119Z,19.70
2023-01-08T04:25:14.084Z,21.03
2023-01-08T04:27:41.988Z,19.03
2023-01-08T04:30:11.410Z,22.80
2023-01-08T04:32:39.330Z,19.03
2023-01-08T04:35:09.411Z,19.67
2023-01-08T04:37:37.350Z,18.40
2023-01-08T04:40:06.283Z,21.60
2023-01-08T04:42:34.405Z,20.17
2023-01-08T04:45:02.338Z,18.50
2023-01-08T04:47:30.236Z,18.57
2023-01-08T04:49:58.177Z,19.50
2023-01-08T04:52:29.323Z,20.90
2023-01-08T04:54:57.233Z,20.73
2023-01-08T04:57:25.117Z,20.30
2023-01-08T04:59:53.045Z,20.30
2023-01-08T05:02:21.246Z,20.83
2023-01-08T05:04:49.577Z,21.50
2023-01-08T05:07:17.607Z,19.30
2023-01-08T05:09:46.879Z,19.83
2023-01-08T05:12:14.783Z,22.83
2023-01-08T05:14:42.706Z,20.70
2023-01-08T05:17:10.605Z,21.17
2023-01-08T05:19:38.624Z,21.57
2023-01-08T05:22:06.499Z,21.97
2023-01-08T05:24:34.475Z,21.80
2023-01-08T05:27:03.797Z,21.57
2023-01-08T05:29:31.724Z,28.80
2023-01-08T05:31:59.648Z,25.37
2023-01-08T05:34:27.697Z,27.27
2023-01-08T05:36:55.588Z,23.53
2023-01-08T05:39:23.483Z,24.07
2023-01-08T05:41:51.425Z,23.27
2023-01-08T05:44:20.699Z,23.83
2023-01-08T05:46:48.737Z,50.63
2023-01-08T05:49:17.046Z,26.10
2023-01-08T05:51:45.029Z,24.33
2023-01-08T05:54:12.975Z,23.10
2023-01-08T05:56:41.145Z,21.60
2023-01-08T05:59:09.080Z,23.03
2023-01-08T06:01:38.455Z,22.43
2023-01-08T06:04:06.850Z,24.13
2023-01-08T06:06:34.893Z,20.63
2023-01-08T06:09:02.782Z,21.77
2023-01-08T06:11:30.856Z,22.00
2023-01-08T06:13:59.843Z,21.60
2023-01-08T06:16:27.770Z,24.03
2023-01-08T06:18:57.027Z,21.77
2023-01-08T06:21:24.944Z,22.87
2023-01-08T06:23:52.818Z,22.07
2023-01-08T06:26:20.739Z,22.53
2023-01-08T06:28:48.614Z,21.70
2023-01-08T06:31:16.594Z,22.03
2023-01-08T06:33:44.970Z,24.13
2023-01-08T06:36:14.254Z,25.40
2023-01-08T06:38:42.185Z,26.47
2023-01-08T06:41:11.732Z,27.50
2023-01-08T06:43:40.551Z,25.93
2023-01-08T06:46:09.297Z,29.13
2023-01-08T06:48:37.408Z,27.00
2023-01-08T06:51:06.256Z,29.47
2023-01-08T06:53:35.564Z,26.03
2023-01-08T06:56:04.498Z,26.00
2023-01-08T06:58:32.471Z,30.67
2023-01-08T07:01:00.481Z,27.97
2023-01-08T07:03:28.578Z,24.73
2023-01-08T07:05:56.830Z,24.00
2023-01-08T07:08:24.792Z,25.97
2023-01-08T07:10:54.058Z,23.53
2023-01-08T07:13:23.820Z,24.10
2023-01-08T07:15:51.853Z,34.60
2023-01-08T07:18:19.998Z,30.53
2023-01-08T07:20:49.457Z,29.63
2023-01-08T07:23:17.575Z,29.47
2023-01-08T07:25:45.466Z,29.83
2023-01-08T07:28:14.867Z,28.77
2023-01-08T07:30:43.211Z,26.60
2023-01-08T07:33:11.219Z,25.23
2023-01-08T07:35:39.224Z,27.30
2023-01-08T07:38:07.167Z,28.30
2023-01-08T07:40:36.871Z,25.37
2023-01-08T07:43:06.701Z,27.80
2023-01-08T07:45:36.065Z,27.97
2023-01-08T07:48:04.041Z,25.73
2023-01-08T07:50:32.252Z,35.47
2023-01-08T07:53:00.598Z,26.03
2023-01-08T07:55:30.014Z,25.30
2023-01-08T07:57:57.993Z,39.00
2023-01-08T08:00:26.211Z,30.77
2023-01-08T08:02:55.711Z,35.93
2023-01-08T08:05:25.921Z,30.00
2023-01-08T08:07:54.043Z,29.10
2023-01-08T08:10:22.094Z,26.33
2023-01-08T08:12:50.013Z,26.33
2023-01-08T08:15:18.116Z,32.70
2023-01-08T08:17:47.127Z,36.67
2023-01-08T08:20:16.970Z,26.83
2023-01-08T08:22:45.068Z,27.77
2023-01-08T08:25:15.183Z,28.60
2023-01-08T08:27:43.460Z,27.67
2023-01-08T08:30:13.273Z,27.37
2023-01-08T08:32:41.454Z,31.17
2023-01-08T08:35:10.432Z,29.73
2023-01-08T08:37:39.724Z,30.27
2023-01-08T08:40:09.105Z,29.13
2023-01-08T08:42:37.120Z,34.37
2023-01-08T08:45:06.160Z,32.50
2023-01-08T08:47:37.218Z,34.00
2023-01-08T08:50:06.002Z,36.30
2023-01-08T08:52:34.730Z,30.57
2023-01-08T08:55:04.658Z,29.90
2023-01-08T08:57:32.614Z,31.37
2023-01-08T09:00:01.469Z,38.67
2023-01-08T09:02:29.989Z,33.07
2023-01-08T09:04:58.026Z,36.70
2023-01-08T09:07:26.307Z,36.27
2023-01-08T09:09:54.300Z,36.97
2023-01-08T09:12:23.788Z,29.93
2023-01-08T09:14:51.901Z,35.17
2023-01-08T09:17:21.377Z,35.60
2023-01-08T09:19:49.411Z,38.93
2023-01-08T09:22:17.367Z,32.83
2023-01-08T09:24:45.275Z,29.27
2023-01-08T09:27:13.299Z,36.53
2023-01-08T09:29:42.600Z,34.70
2023-01-08T09:32:10.905Z,37.13
2023-01-08T09:34:38.891Z,35.10
2023-01-08T09:37:07.559Z,31.00
2023-01-08T09:39:37.040Z,59.80
2023-01-08T09:42:06.870Z,36.20
2023-01-08T09:44:38.873Z,41.27
2023-01-08T09:47:17.857Z,36.00
2023-01-08T09:49:47.792Z,32.53
2023-01-08T09:52:16.590Z,36.30
2023-01-08T09:54:44.664Z,34.97
2023-01-08T09:57:16.955Z,33.80
2023-01-08T09:59:47.832Z,33.83
2023-01-08T10:02:20.350Z,38.73
2023-01-08T10:04:54.387Z,33.33
2023-01-08T10:07:24.630Z,32.60
2023-01-08T10:09:53.429Z,34.30
2023-01-08T10:12:26.664Z,29.37
2023-01-08T10:14:56.028Z,34.10
2023-01-08T10:17:30.471Z,37.67
2023-01-08T10:19:58.409Z,56.60
2023-01-08T10:22:32.478Z,50.20
2023-01-08T10:25:08.086Z,35.07
2023-01-08T10:27:46.578Z,37.53
2023-01-08T10:30:17.969Z,42.27
2023-01-08T10:32:54.432Z,47.30
2023-01-08T10:35:25.443Z,34.17
2023-01-08T10:37:53.531Z,35.20
2023-01-08T10:40:29.413Z,34.20
2023-01-08T10:43:06.631Z,33.60
2023-01-08T10:45:35.021Z,33.20
2023-01-08T10:48:08.019Z,35.87
2023-01-08T10:50:36.407Z,34.40
2023-01-08T10:53:06.594Z,30.83
2023-01-08T10:55:37.406Z,33.33
2023-01-08T10:58:16.288Z,32.57
2023-01-08T11:00:44.531Z,31.67
2023-01-08T11:03:32.115Z,34.03
2023-01-08T11:06:00.326Z,32.90
2023-01-08T11:08:28.309Z,31.70
2023-01-08T11:10:58.291Z,34.50
2023-01-08T11:13:27.003Z,31.37
2023-01-08T11:16:03.686Z,32.33
2023-01-08T11:18:37.813Z,37.10
2023-01-08T11:21:10.791Z,38.80
2023-01-08T11:23:38.806Z,36.97
2023-01-08T11:26:11.800Z,41.00
2023-01-08T11:28:50.385Z,109.10
2023-01-08T11:31:24.438Z,36.17
2023-01-08T11:33:59.525Z,35.17
2023-01-08T11:36:31.394Z,39.90
2023-01-08T11:38:59.364Z,38.57
2023-01-08T11:41:41.187Z,37.53
2023-01-08T11:44:23.098Z,38.57
2023-01-08T11:47:02.983Z,35.40
2023-01-08T11:49:42.834Z,36.77
2023-01-08T11:52:24.909Z,34.93
2023-01-08T11:55:14.416Z,34.33
2023-01-08T11:57:54.599Z,33.33
2023-01-08T12:00:39.234Z,36.47
2023-01-08T12:03:18.029Z,34.97
2023-01-08T12:05:51.094Z,34.10
2023-01-08T12:08:27.955Z,31.43
2023-01-08T12:11:06.798Z,33.37
2023-01-08T12:13:58.465Z,31.80
2023-01-08T12:16:41.552Z,32.80
2023-01-08T12:19:21.000Z,34.03
2023-01-08T12:22:04.940Z,34.80
2023-01-08T12:24:58.344Z,31.40
2023-01-08T12:27:55.979Z,33.67
2023-01-08T12:30:32.804Z,30.83
2023-01-08T12:33:05.113Z,33.00
2023-01-08T12:35:39.345Z,32.27
2023-01-08T12:38:14.494Z,31.40
2023-01-08T12:40:44.901Z,31.00
2023-01-08T12:43:18.567Z,30.50
2023-01-08T12:45:49.685Z,31.23
2023-01-08T12:48:20.915Z,29.10
2023-01-08T12:50:58.459Z,33.57
2023-01-08T12:53:38.665Z,34.40
2023-01-08T12:56:12.187Z,28.93
2023-01-08T12:58:56.791Z,32.33
2023-01-08T13:01:33.728Z,34.67
2023-01-08T13:04:04.234Z,38.97
2023-01-08T13:06:32.284Z,31.67
2023-01-08T13:09:02.078Z,30.20
2023-01-08T13:11:32.429Z,26.53
2023-01-08T13:14:03.287Z,36.57
2023-01-08T13:16:39.427Z,31.50
2023-01-08T13:19:08.794Z,28.50
2023-01-08T13:21:39.006Z,28.93
2023-01-08T13:24:32.655Z,26.73
2023-01-08T13:27:12.762Z,26.60
2023-01-08T13:29:42.936Z,26.77
2023-01-08T13:32:42.716Z,31.53
2023-01-08T13:35:31.159Z,28.47
2023-01-08T13:38:16.950Z,31.50
2023-01-08T13:40:56.602Z,30.30
2023-01-08T13:43:29.703Z,32.03
2023-01-08T13:46:14.165Z,27.30
2023-01-08T13:48:50.599Z,26.77
2023-01-08T13:51:42.416Z,25.93
2023-01-08T13:54:20.680Z,23.20
2023-01-08T13:56:54.998Z,25.73
2023-01-08T13:59:35.047Z,32.10
2023-01-08T14:02:03.321Z,34.17
2023-01-08T14:04:31.899Z,26.03
2023-01-08T14:07:14.478Z,23.97
2023-01-08T14:09:42.572Z,22.20
2023-01-08T14:12:14.240Z,25.27
2023-01-08T14:14:51.811Z,24.20
2023-01-08T14:17:22.452Z,22.40
2023-01-08T14:19:50.922Z,22.33
2023-01-08T14:22:23.474Z,22.50
2023-01-08T14:24:56.554Z,23.63
2023-01-08T14:27:27.782Z,21.83
2023-01-08T14:29:56.298Z,21.67
2023-01-08T14:32:28.117Z,20.27
2023-01-08T14:34:58.565Z,22.30
2023-01-08T14:37:26.625Z,22.77
2023-01-08T14:39:55.309Z,27.53
2023-01-08T14:42:47.162Z,23.17
2023-01-08T14:45:22.552Z,21.50
2023-01-08T14:47:52.498Z,20.13
2023-01-08T14:50:24.662Z,20.03
2023-01-08T14:52:54.091Z,22.63
2023-01-08T14:55:23.768Z,34.53
2023-01-08T14:57:53.793Z,31.17
2023-01-08T15:00:26.274Z,30.50
2023-01-08T15:02:54.601Z,24.33
2023-01-08T15:05:27.707Z,21.93
2023-01-08T15:08:01.823Z,23.53
2023-01-08T15:10:36.437Z,22.30
2023-01-08T15:13:07.458Z,21.13
2023-01-08T15:15:48.285Z,22.00
2023-01-08T15:18:16.344Z,20.80
2023-01-08T15:20:46.147Z,19.50
2023-01-08T15:23:28.105Z,22.30
2023-01-08T15:25:57.528Z,19.13
2023-01-08T15:28:27.944Z,19.07
2023-01-08T15:30:57.948Z,19.57
2023-01-08T15:33:27.237Z,19.80
2023-01-08T15:35:55.325Z,22.67
2023-01-08T15:38:23.919Z,21.20
2023-01-08T15:40:53.157Z,20.80
2023-01-08T15:43:20.400Z,20.70
2023-01-08T15:45:50.047Z,21.33
2023-01-08T15:48:19.371Z,22.30
2023-01-08T15:50:47.334Z,20.67
2023-01-08T15:53:19.137Z,19.90
2023-01-08T15:55:47.206Z,19.87
2023-01-08T15:58:16.168Z,19.80
2023-01-08T16:00:46.130Z,20.60
2023-01-08T16:03:15.312Z,20.73
2023-01-08T16:05:44.666Z,22.20
2023-01-08T16:08:13.158Z,23.47
2023-01-08T16:10:41.366Z,25.07
2023-01-08T16:13:11.858Z,30.20
2023-01-08T16:15:40.577Z,22.40
2023-01-08T16:18:08.484Z,20.70
2023-01-08T16:20:36.569Z,21.27
2023-01-08T16:23:05.847Z,22.30
2023-01-08T16:25:34.146Z,20.87
2023-01-08T16:28:03.878Z,21.90
2023-01-08T16:30:31.861Z,18.80
2023-01-08T16:32:59.771Z,20.73
2023-01-08T16:35:27.736Z,19.90
2023-01-08T16:37:56.454Z,18.73
2023-01-08T16:40:25.943Z,19.10
2023-01-08T16:42:53.878Z,21.47
2023-01-08T16:45:21.814Z,20.60
2023-01-08T16:47:50.017Z,20.93
2023-01-08T16:50:18.074Z,22.40
2023-01-08T16:52:46.036Z,26.30
2023-01-08T16:55:14.198Z,30.40
2023-01-08T16:57:43.746Z,27.10
2023-01-08T17:00:13.250Z,26.70
2023-01-08T17:02:41.237Z,24.60
2023-01-08T17:05:09.724Z,22.33
2023-01-08T17:07:37.652Z,20.83
2023-01-08T17:10:06.662Z,20.00
2023-01-08T17:12:34.588Z,21.47
2023-01-08T17:15:03.964Z,18.80
2023-01-08T17:17:32.095Z,20.77
2023-01-08T17:19:59.980Z,21.37
2023-01-08T17:22:28.090Z,25.30
2023-01-08T17:24:56.023Z,21.70
2023-01-08T17:27:23.992Z,17.67
2023-01-08T17:29:51.919Z,20.20
2023-01-08T17:32:21.601Z,19.77
2023-01-08T17:34:49.572Z,18.80
2023-01-08T17:37:17.576Z,21.30
2023-01-08T17:39:45.646Z,20.50
2023-01-08T17:42:27.496Z,20.30
2023-01-08T17:44:57.409Z,19.20
2023-01-08T17:47:27.779Z,19.47
2023-01-08T17:49:57.332Z,18.27
2023-01-08T17:52:26.808Z,24.33
2023-01-08T17:54:54.922Z,22.40
2023-01-08T17:57:23.094Z,19.70
2023-01-08T17:59:52.291Z,19.93
2023-01-08T18:02:20.507Z,19.00
2023-01-08T18:04:49.974Z,39.00
2023-01-08T18:07:18.148Z,34.70
2023-01-08T18:09:46.305Z,38.63
2023-01-08T18:12:14.524Z,32.17
2023-01-08T18:14:44.042Z,27.57
2023-01-08T18:17:13.107Z,37.47
2023-01-08T18:19:41.192Z,34.37
2023-01-08T18:22:10.757Z,33.00
2023-01-08T18:24:38.786Z,25.20
2023-01-08T18:27:06.761Z,20.63
2023-01-08T18:29:35.168Z,22.57
2023-01-08T18:32:03.196Z,17.40
2023-01-08T18:34:32.091Z,19.20
2023-01-08T18:37:00.159Z,18.63
2023-01-08T18:39:31.117Z,17.73
2023-01-08T18:42:17.132Z,18.90
2023-01-08T18:44:45.302Z,28.03
2023-01-08T18:47:14.832Z,28.83
2023-01-08T18:49:43.147Z,27.37
2023-01-08T18:52:13.924Z,37.83
2023-01-08T18:54:43.792Z,37.90
2023-01-08T18:57:11.937Z,28.27
2023-01-08T18:59:40.047Z,28.40
2023-01-08T19:02:08.635Z,18.17
2023-01-08T19:04:37.119Z,19.67
2023-01-08T19:07:05.207Z,17.40
2023-01-08T19:09:33.125Z,16.53
2023-01-08T19:12:02.427Z,17.10
2023-01-08T19:14:30.351Z,17.97
2023-01-08T19:16:58.592Z,17.43
2023-01-08T19:19:28.090Z,29.93
2023-01-08T19:21:57.107Z,20.27
2023-01-08T19:24:25.074Z,24.40
2023-01-08T19:26:53.267Z,41.23
2023-01-08T19:29:22.545Z,48.20
2023-01-08T19:31:50.781Z,22.33
2023-01-08T19:34:18.765Z,20.50
2023-01-08T19:36:46.726Z,25.97
2023-01-08T19:39:14.712Z,26.67
2023-01-08T19:41:59.988Z,22.40
2023-01-08T19:44:29.369Z,22.00
2023-01-08T19:46:57.293Z,21.50
2023-01-08T19:49:25.607Z,21.93
2023-01-08T19:51:53.698Z,24.60
2023-01-08T19:54:23.682Z,24.47
2023-01-08T19:56:51.612Z,18.00
2023-01-08T19:59:19.555Z,16.57
2023-01-08T20:01:49.070Z,15.67
2023-01-08T20:04:17.116Z,21.43
2023-01-08T20:06:45.137Z,16.00
2023-01-08T20:09:13.264Z,21.10
2023-01-08T20:11:41.547Z,20.00
2023-01-08T20:14:09.453Z,16.30
2023-01-08T20:16:37.548Z,25.50
2023-01-08T20:19:06.976Z,34.20
2023-01-08T20:21:35.624Z,21.63
2023-01-08T20:24:08.541Z,16.43
2023-01-08T20:26:37.487Z,18.00
2023-01-08T20:29:06.209Z,22.60
2023-01-08T20:31:34.902Z,23.60
2023-01-08T20:34:06.082Z,15.40
2023-01-08T20:36:35.973Z,17.80
2023-01-08T20:39:07.345Z,17.83
2023-01-08T20:41:35.761Z,14.40
2023-01-08T20:44:06.506Z,13.80
2023-01-08T20:46:36.786Z,14.20
2023-01-08T20:49:06.831Z,15.73
2023-01-08T20:51:39.740Z,19.37
2023-01-08T20:54:09.647Z,16.43
2023-01-08T20:56:37.945Z,14.57
2023-01-08T20:59:06.103Z,16.27
2023-01-08T21:01:35.763Z,13.60
2023-01-08T21:04:06.116Z,16.63
2023-01-08T21:06:36.084Z,15.67
2023-01-08T21:09:07.590Z,14.77
2023-01-08T21:11:37.099Z,15.20
2023-01-08T21:14:05.517Z,16.20
2023-01-08T21:16:34.751Z,17.10
2023-01-08T21:19:03.521Z,15.83
2023-01-08T21:21:33.810Z,19.50
2023-01-08T21:24:05.188Z,16.50
2023-01-08T21:26:34.351Z,19.93
2023-01-08T21:29:03.754Z,20.50
2023-01-08T21:31:31.750Z,19.93
2023-01-08T21:34:01.373Z,20.60
2023-01-08T21:36:32.051Z,19.03
2023-01-08T21:39:01.705Z,17.73
2023-01-08T21:41:48.871Z,16.67
2023-01-08T21:44:35.902Z,16.40
2023-01-08T21:47:05.404Z,18.40
2023-01-08T21:49:35.746Z,16.83
2023-01-08T21:52:21.144Z,19.83
2023-01-08T21:54:49.147Z,17.00
2023-01-08T21:57:18.501Z,17.23
2023-01-08T21:59:46.443Z,17.23
2023-01-08T22:02:16.244Z,18.07
2023-01-08T22:04:44.625Z,14.97
2023-01-08T22:07:13.026Z,15.80
2023-01-08T22:09:41.451Z,17.30
2023-01-08T22:12:09.701Z,19.07
2023-01-08T22:14:39.186Z,16.97
2023-01-08T22:17:08.363Z,15.60
2023-01-08T22:19:37.788Z,16.73
2023-01-08T22:22:05.793Z,17.20
2023-01-08T22:24:33.972Z,15.80
2023-01-08T22:27:01.869Z,14.80
2023-01-08T22:29:29.783Z,15.17
2023-01-08T22:31:59.107Z,14.70
2023-01-08T22:34:27.402Z,15.77
2023-01-08T22:36:55.280Z,15.93
2023-01-08T22:39:23.183Z,15.23
2023-01-08T22:41:51.135Z,16.70
2023-01-08T22:44:19.040Z,15.40
2023-01-08T22:46:46.964Z,15.83
2023-01-08T22:49:16.535Z,14.30
2023-01-08T22:51:44.468Z,16.73
2023-01-08T22:54:14.464Z,15.50
2023-01-08T22:56:42.403Z,13.43
2023-01-08T22:59:10.297Z,13.63
2023-01-08T23:01:38.259Z,15.10
2023-01-08T23:04:06.453Z,15.80
2023-01-08T23:06:36.029Z,14.37
2023-01-08T23:09:04.011Z,14.80
2023-01-08T23:11:32.712Z,12.60
2023-01-08T23:14:01.458Z,11.47
2023-01-08T23:16:29.403Z,12.00
2023-01-08T23:18:57.846Z,13.07
2023-01-08T23:21:28.378Z,11.30
2023-01-08T23:23:57.871Z,11.07
2023-01-08T23:26:27.507Z,11.53
2023-01-08T23:28:56.757Z,14.17
2023-01-08T23:31:27.525Z,11.23
2023-01-08T23:33:56.128Z,11.90
2023-01-08T23:36:24.077Z,12.77
2023-01-08T23:38:53.438Z,13.53
2023-01-08T23:41:25.917Z,12.63
2023-01-08T23:43:54.736Z,11.80
2023-01-08T23:46:22.650Z,12.17
2023-01-08T23:48:50.905Z,14.07
2023-01-08T23:51:19.040Z,13.60
2023-01-08T23:53:47.585Z,14.63
2023-01-08T23:56:15.727Z,13.87
2023-01-08T23:58:45.712Z,14.97
